Time;durP1;ratioP1;P1;durP2;ratioP2;P2;SDS_P1;SDS_P2;PMS_P1;PMS_P2;Temp;Humidity;BMP_temperature;BMP_pressure;BME280_temperature;BME280_humidity;BME280_pressure;Samples;Min_cycle;Max_cycle;Signal;HPM_P1;HPM_P2
2023/08/20 00:00:48;;;;;;;11.60;8.25;;;24.90;99.10;;;;;;5072884;28;20067;-69
2023/08/20 00:03:52;;;;;;;10.68;7.18;;;24.90;99.60;;;;;;5060649;28;20052;-69
2023/08/20 00:06:56;;;;;;;14.68;7.70;;;24.80;99.90;;;;;;5072925;28;20044;-69
2023/08/20 00:10:04;;;;;;;12.25;7.15;;;24.70;99.90;;;;;;5086091;28;20047;-68
2023/08/20 00:13:08;;;;;;;13.27;7.82;;;24.60;99.90;;;;;;5092818;28;20374;-69
2023/08/20 00:16:12;;;;;;;8.02;7.22;;;24.70;99.90;;;;;;5093376;28;20090;-69
2023/08/20 00:19:16;;;;;;;16.48;7.60;;;24.70;99.90;;;;;;5092967;28;20493;-69
2023/08/20 00:22:23;;;;;;;9.32;7.40;;;24.60;99.90;;;;;;5092457;28;20043;-69
2023/08/20 00:25:28;;;;;;;16.10;7.78;;;24.60;99.90;;;;;;5092864;28;20043;-69
2023/08/20 00:28:36;;;;;;;11.63;6.70;;;24.60;99.90;;;;;;5092736;28;20051;-68
2023/08/20 00:31:41;;;;;;;12.02;7.45;;;24.60;99.90;;;;;;5080156;28;20059;-69
2023/08/20 00:34:45;;;;;;;10.00;7.18;;;24.50;99.90;;;;;;5092801;28;20043;-68
2023/08/20 00:37:50;;;;;;;10.57;6.80;;;24.50;99.90;;;;;;5092107;28;20043;-68
2023/08/20 00:40:54;;;;;;;10.10;7.80;;;24.50;99.90;;;;;;5092980;28;20039;-68
2023/08/20 00:43:58;;;;;;;14.20;7.63;;;24.50;99.90;;;;;;5079004;28;20047;-68
2023/08/20 00:47:04;;;;;;;10.23;7.82;;;24.40;99.90;;;;;;5077875;28;20127;-69
2023/08/20 00:50:10;;;;;;;11.15;7.70;;;24.40;99.90;;;;;;5091053;28;20050;-69
2023/08/20 00:53:15;;;;;;;14.57;7.85;;;24.10;99.90;;;;;;5091958;28;20070;-69
2023/08/20 00:56:20;;;;;;;14.88;8.27;;;24.10;99.90;;;;;;5079528;28;20402;-68
2023/08/20 00:59:24;;;;;;;9.98;8.43;;;24.00;99.90;;;;;;5079860;28;20039;-69
2023/08/20 01:02:29;;;;;;;16.15;8.32;;;24.00;99.90;;;;;;5091594;28;20051;-72
2023/08/20 01:05:39;;;;;;;9.38;8.13;;;24.10;99.90;;;;;;5091910;28;20063;-69
2023/08/20 01:08:47;;;;;;;10.82;8.02;;;24.10;99.90;;;;;;5091634;28;20402;-69
2023/08/20 01:11:59;;;;;;;11.82;9.10;;;24.20;99.90;;;;;;5079037;28;20046;-69
2023/08/20 01:15:03;;;;;;;11.40;8.38;;;24.10;99.90;;;;;;5079191;28;20438;-69
2023/08/20 01:18:07;;;;;;;10.27;8.20;;;24.00;99.90;;;;;;5091719;28;20050;-68
2023/08/20 01:21:27;;;;;;;13.07;8.85;;;23.90;99.90;;;;;;5079025;28;20043;-68
2023/08/20 01:24:49;;;;;;;10.98;8.13;;;23.90;99.90;;;;;;5091120;28;20046;-68
2023/08/20 01:28:16;;;;;;;15.02;8.60;;;24.10;99.90;;;;;;5078999;28;20063;-69
2023/08/20 01:31:21;;;;;;;16.77;9.18;;;24.20;99.90;;;;;;5091285;28;20043;-69
2023/08/20 01:34:26;;;;;;;13.98;8.93;;;24.10;99.90;;;;;;5091371;28;20035;-70
2023/08/20 01:37:30;;;;;;;10.43;8.25;;;24.10;99.90;;;;;;5079052;28;20047;-69
2023/08/20 01:40:34;;;;;;;14.20;8.50;;;24.00;99.90;;;;;;5091171;28;20042;-70
2023/08/20 01:43:39;;;;;;;15.55;9.00;;;24.00;99.90;;;;;;5091570;28;20047;-69
2023/08/20 01:46:42;;;;;;;9.23;8.18;;;23.90;99.90;;;;;;5091455;28;20046;-69
2023/08/20 01:49:46;;;;;;;13.35;8.75;;;23.80;99.90;;;;;;5091447;28;20043;-69
2023/08/20 01:52:50;;;;;;;12.27;7.70;;;23.70;99.90;;;;;;5090874;28;20043;-70
2023/08/20 01:55:54;;;;;;;13.68;8.70;;;23.70;99.90;;;;;;5091198;28;20493;-70
2023/08/20 01:58:58;;;;;;;11.02;7.25;;;23.70;99.90;;;;;;5090354;28;20043;-70
2023/08/20 02:02:04;;;;;;;10.88;7.55;;;23.80;99.90;;;;;;5077457;28;20067;-70
2023/08/20 02:05:10;;;;;;;14.43;8.30;;;23.90;99.90;;;;;;5090999;28;20063;-69
2023/08/20 02:08:17;;;;;;;11.50;8.35;;;23.80;99.90;;;;;;5066541;28;20050;-69
2023/08/20 02:11:39;;;;;;;9.63;8.05;;;23.80;99.90;;;;;;5090697;28;20051;-69
2023/08/20 02:14:43;;;;;;;10.40;7.70;;;23.70;99.90;;;;;;5090928;28;20051;-69
2023/08/20 02:17:48;;;;;;;11.98;7.78;;;23.70;99.90;;;;;;5090770;28;20062;-69
2023/08/20 02:21:48;;;;;;;11.30;8.13;;;23.70;99.90;;;;;;5090684;28;20050;-69
2023/08/20 02:24:51;;;;;;;11.03;8.43;;;23.70;99.90;;;;;;5090894;28;20047;-69
2023/08/20 02:27:55;;;;;;;11.23;8.10;;;23.60;99.90;;;;;;5090579;28;20047;-69
2023/08/20 02:31:36;;;;;;;9.23;7.93;;;23.50;99.90;;;;;;5090705;28;20040;-69
2023/08/20 02:34:40;;;;;;;9.73;8.18;;;23.50;99.90;;;;;;5078276;28;20039;-70
2023/08/20 02:38:03;;;;;;;15.98;7.82;;;23.30;99.90;;;;;;5078217;28;20039;-68
2023/08/20 02:41:26;;;;;;;8.52;7.63;;;23.30;99.90;;;;;;5090681;28;20119;-69
2023/08/20 02:44:30;;;;;;;10.73;8.45;;;23.20;99.90;;;;;;5090531;28;20056;-69
2023/08/20 02:47:34;;;;;;;10.82;7.93;;;23.10;99.90;;;;;;5090492;28;20517;-69
2023/08/20 02:50:38;;;;;;;12.30;7.88;;;23.20;99.90;;;;;;5090700;28;20043;-69
2023/08/20 02:53:43;;;;;;;11.48;8.00;;;23.20;99.90;;;;;;5078051;28;20043;-69
2023/08/20 02:57:06;;;;;;;11.60;8.07;;;23.30;99.90;;;;;;5090524;28;20498;-69
2023/08/20 03:03:33;;;;;;;13.25;7.88;;;23.30;99.90;;;;;;5089026;28;20051;-69
2023/08/20 03:06:56;;;;;;;13.57;8.02;;;23.20;99.90;;;;;;5090535;28;20246;-68
2023/08/20 03:13:41;;;;;;;12.93;7.35;;;23.20;99.90;;;;;;5092553;28;20039;-69
2023/08/20 03:16:45;;;;;;;8.93;7.18;;;23.10;99.90;;;;;;5081773;28;20047;-68
2023/08/20 03:20:00;;;;;;;11.15;7.18;;;23.10;99.90;;;;;;5094320;28;20043;-69
2023/08/20 03:23:04;;;;;;;14.55;7.95;;;23.10;99.90;;;;;;5094007;28;20047;-69
2023/08/20 03:26:27;;;;;;;9.77;7.20;;;23.00;99.90;;;;;;5093859;28;20383;-69
2023/08/20 03:29:51;;;;;;;11.77;7.30;;;23.10;99.90;;;;;;5093853;28;20051;-69
2023/08/20 03:36:37;;;;;;;15.15;6.88;;;23.00;99.90;;;;;;5092863;28;20046;-69
2023/08/20 03:39:41;;;;;;;9.05;6.65;;;23.00;99.90;;;;;;5080921;28;20105;-69
2023/08/20 03:42:44;;;;;;;8.88;7.50;;;23.00;99.90;;;;;;5093335;28;20051;-69
2023/08/20 03:46:11;;;;;;;9.68;7.25;;;22.90;99.90;;;;;;5093499;28;20051;-69
2023/08/20 03:49:15;;;;;;;9.35;7.10;;;22.80;99.90;;;;;;5080642;28;20039;-69
2023/08/20 03:52:19;;;;;;;9.18;6.63;;;22.80;99.90;;;;;;5080235;28;20043;-69
2023/08/20 03:55:41;;;;;;;11.45;6.45;;;22.90;99.90;;;;;;5093344;28;20043;-69
2023/08/20 03:58:46;;;;;;;10.15;6.93;;;22.90;99.90;;;;;;5080777;28;20501;-68
2023/08/20 04:01:51;;;;;;;8.07;6.88;;;22.80;99.90;;;;;;5080479;28;20047;-69
2023/08/20 04:05:13;;;;;;;10.35;6.90;;;22.70;99.90;;;;;;5093143;28;20039;-69
2023/08/20 04:08:36;;;;;;;8.70;6.80;;;22.70;99.90;;;;;;5080700;28;20047;-69
2023/08/20 04:11:40;;;;;;;11.30;6.97;;;22.70;99.90;;;;;;5093033;28;20498;-69
2023/08/20 04:14:44;;;;;;;9.65;6.95;;;22.70;99.90;;;;;;5080201;28;20410;-68
2023/08/20 04:18:07;;;;;;;10.30;7.40;;;22.50;99.90;;;;;;5093036;28;20492;-69
2023/08/20 04:21:30;;;;;;;10.90;6.90;;;22.50;99.90;;;;;;5080582;28;20054;-69
2023/08/20 04:24:33;;;;;;;8.85;6.30;;;22.50;99.90;;;;;;5092091;28;20390;-69
2023/08/20 04:27:56;;;;;;;11.55;7.18;;;22.50;99.90;;;;;;5092584;28;20043;-68
2023/08/20 04:31:00;;;;;;;10.25;7.22;;;22.40;99.90;;;;;;5080007;28;20039;-68
2023/08/20 04:34:14;;;;;;;12.25;7.95;;;22.40;99.90;;;;;;5080849;28;20059;-68
2023/08/20 04:37:22;;;;;;;11.75;7.75;;;22.40;99.90;;;;;;5080133;28;20043;-68
2023/08/20 04:40:26;;;;;;;18.02;8.27;;;22.40;99.90;;;;;;5092650;28;20039;-68
2023/08/20 04:43:30;;;;;;;10.93;7.43;;;22.40;99.90;;;;;;5079652;28;20031;-69
2023/08/20 04:46:36;;;;;;;10.25;7.22;;;22.50;99.90;;;;;;5080170;28;20051;-68
2023/08/20 04:49:40;;;;;;;12.43;7.72;;;22.40;99.90;;;;;;5079731;28;20047;-68
2023/08/20 04:52:44;;;;;;;16.73;7.97;;;22.40;99.90;;;;;;5092382;28;20126;-68
2023/08/20 04:59:50;;;;;;;13.85;7.85;;;22.60;99.90;;;;;;5091287;28;20047;-69
2023/08/20 05:03:14;;;;;;;11.20;7.22;;;22.70;99.90;;;;;;5091927;28;20047;-68
2023/08/20 05:06:18;;;;;;;14.85;7.78;;;22.70;99.90;;;;;;5079259;28;20039;-68
2023/08/20 05:12:45;;;;;;;10.85;7.13;;;22.80;99.90;;;;;;5091852;28;20039;-69
2023/08/20 05:15:49;;;;;;;9.30;7.20;;;23.00;99.90;;;;;;5079603;28;20493;-69
2023/08/20 05:19:11;;;;;;;8.75;7.10;;;23.10;99.90;;;;;;5079298;28;20047;-69
2023/08/20 05:22:34;;;;;;;7.50;6.38;;;24.80;99.90;;;;;;5091088;28;20054;-68
2023/08/20 05:25:39;;;;;;;7.20;6.32;;;27.50;99.90;;;;;;5091821;28;20051;-69
2023/08/20 05:28:43;;;;;;;20.25;7.20;;;29.70;99.90;;;;;;5090447;28;20398;-69
2023/08/20 05:32:06;;;;;;;6.90;6.20;;;30.40;99.90;;;;;;5078842;28;20390;-69
2023/08/20 05:35:11;;;;;;;7.75;5.80;;;31.70;99.40;;;;;;5091280;28;20039;-69
2023/08/20 05:41:39;;;;;;;12.45;6.47;;;33.30;95.90;;;;;;5090748;28;20039;-69
2023/08/20 05:44:43;;;;;;;9.88;5.68;;;33.20;95.60;;;;;;5078855;28;20050;-69
2023/08/20 05:47:51;;;;;;;11.13;5.47;;;32.90;96.00;;;;;;5078469;28;20043;-69
2023/08/20 05:50:55;;;;;;;10.15;5.07;;;34.60;94.10;;;;;;5091121;28;20047;-69
2023/08/20 05:54:00;;;;;;;5.97;4.72;;;35.50;92.90;;;;;;5091397;28;20039;-68
2023/08/20 05:57:04;;;;;;;7.90;5.55;;;36.10;92.20;;;;;;5078734;28;20047;-69
2023/08/20 06:00:09;;;;;;;8.82;5.15;;;34.80;92.00;;;;;;5078667;28;20039;-70
2023/08/20 06:03:22;;;;;;;5.95;5.03;;;35.10;92.10;;;;;;5091106;28;20038;-70
2023/08/20 06:06:26;;;;;;;9.43;5.25;;;36.10;91.30;;;;;;5091393;28;20039;-69
2023/08/20 06:09:30;;;;;;;6.22;5.07;;;37.00;90.40;;;;;;5091111;28;20035;-69
2023/08/20 06:12:34;;;;;;;5.28;4.70;;;36.40;90.20;;;;;;5090804;28;20497;-69
2023/08/20 06:15:57;;;;;;;4.47;4.05;;;36.30;89.30;;;;;;5091190;28;20059;-70
2023/08/20 06:19:19;;;;;;;5.43;4.80;;;36.00;90.20;;;;;;5091149;28;20047;-70
2023/08/20 06:22:23;;;;;;;6.63;4.50;;;37.10;89.20;;;;;;5090914;28;20051;-69
2023/08/20 06:25:27;;;;;;;7.78;4.82;;;37.30;88.20;;;;;;5091201;28;20051;-70
2023/08/20 06:28:50;;;;;;;5.63;4.45;;;37.00;87.10;;;;;;5078385;28;20043;-69
2023/08/20 06:31:54;;;;;;;6.68;4.65;;;37.50;86.60;;;;;;5090623;28;20039;-70
2023/08/20 06:34:58;;;;;;;7.40;4.45;;;38.00;85.60;;;;;;5091082;28;20047;-70
2023/08/20 06:38:03;;;;;;;7.68;4.53;;;36.70;84.80;;;;;;5090671;28;20059;-70
2023/08/20 06:41:25;;;;;;;6.57;4.45;;;36.30;86.30;;;;;;5090776;28;20517;-70
2023/08/20 06:44:30;;;;;;;9.43;4.25;;;37.30;84.90;;;;;;5091100;28;20047;-69
2023/08/20 06:47:34;;;;;;;6.35;4.55;;;36.90;85.90;;;;;;5079731;28;20131;-70
2023/08/20 06:54:19;;;;;;;7.78;4.72;;;36.10;84.70;;;;;;5094423;28;20051;-70
2023/08/20 06:57:23;;;;;;;9.07;4.63;;;36.20;85.20;;;;;;5094800;28;20059;-69
2023/08/20 07:00:46;;;;;;;6.20;4.25;;;37.10;84.60;;;;;;5094261;28;20039;-70
2023/08/20 07:03:50;;;;;;;7.72;4.65;;;37.60;83.10;;;;;;5094169;28;20434;-70
2023/08/20 07:06:54;;;;;;;5.65;4.28;;;37.10;83.60;;;;;;5094279;28;20062;-69
2023/08/20 07:09:58;;;;;;;5.05;4.55;;;36.60;84.30;;;;;;5094624;28;20051;-70
2023/08/20 07:13:02;;;;;;;7.57;5.18;;;37.50;83.30;;;;;;5081615;28;20046;-70
2023/08/20 07:16:06;;;;;;;6.50;4.63;;;37.00;83.40;;;;;;5094322;28;20301;-70
2023/08/20 07:23:11;;;;;;;7.35;4.80;;;37.40;82.70;;;;;;5093573;28;20039;-70
2023/08/20 07:26:15;;;;;;;8.55;4.40;;;38.60;81.80;;;;;;5094076;28;20062;-70
2023/08/20 07:29:19;;;;;;;7.40;4.47;;;38.90;81.20;;;;;;5093835;28;20047;-70
2023/08/20 07:32:23;;;;;;;7.30;4.78;;;38.90;80.70;;;;;;5081093;28;20031;-70
2023/08/20 07:35:27;;;;;;;7.05;5.07;;;40.10;78.50;;;;;;5093820;28;20039;-70
2023/08/20 07:38:31;;;;;;;6.57;4.70;;;40.90;77.60;;;;;;5093909;28;20047;-70
2023/08/20 07:45:35;;;;;;;5.68;4.55;;;38.90;80.10;;;;;;5093425;28;20063;-70
2023/08/20 07:48:39;;;;;;;5.30;4.80;;;38.60;79.40;;;;;;5093583;28;20054;-70
2023/08/20 07:52:02;;;;;;;10.38;4.93;;;37.90;81.20;;;;;;5092927;28;20035;-70
2023/08/20 07:55:25;;;;;;;8.27;4.75;;;36.90;81.90;;;;;;5093293;28;20047;-70
2023/08/20 07:58:29;;;;;;;6.15;4.88;;;38.90;79.80;;;;;;5092213;28;20044;-69
2023/08/20 08:02:10;;;;;;;5.43;4.93;;;37.80;79.90;;;;;;5093010;28;20394;-69
2023/08/20 08:05:14;;;;;;;5.82;5.07;;;37.50;81.80;;;;;;5093071;28;20047;-70
2023/08/20 08:08:42;;;;;;;5.38;4.88;;;36.90;82.80;;;;;;5092629;28;20042;-69
2023/08/20 08:11:46;;;;;;;9.80;4.80;;;39.80;79.50;;;;;;5092677;28;20047;-68
2023/08/20 08:14:50;;;;;;;5.10;4.43;;;41.00;78.20;;;;;;5093027;28;20047;-69
2023/08/20 08:21:35;;;;;;;6.60;4.78;;;41.30;76.80;;;;;;5092567;28;20047;-69
2023/08/20 08:24:41;;;;;;;6.10;5.32;;;40.30;76.30;;;;;;5092970;28;20387;-69
2023/08/20 08:27:46;;;;;;;5.07;4.50;;;41.00;76.50;;;;;;5092522;28;20047;-70
2023/08/20 08:30:50;;;;;;;6.88;4.40;;;43.10;73.80;;;;;;5093016;28;20067;-70
2023/08/20 08:34:32;;;;;;;7.40;4.47;;;44.90;70.90;;;;;;5092546;28;20036;-68
2023/08/20 08:37:36;;;;;;;4.57;4.18;;;46.00;69.40;;;;;;5080026;28;20040;-68
2023/08/20 08:40:41;;;;;;;4.30;3.90;;;45.30;69.90;;;;;;5092218;28;20032;-67
2023/08/20 08:43:46;;;;;;;8.55;5.00;;;43.60;69.70;;;;;;5092591;28;20039;-69
2023/08/20 08:47:10;;;;;;;8.80;4.65;;;41.70;71.30;;;;;;5092572;28;20047;-69
2023/08/20 08:59:45;;;;;;;11.35;5.20;;;45.00;67.10;;;;;;5096164;28;20046;-67
2023/08/20 09:02:48;;;;;;;5.10;4.60;;;43.50;67.90;;;;;;5091802;28;20063;-68
2023/08/20 09:05:59;;;;;;;6.68;3.90;;;45.10;66.50;;;;;;5092236;28;20068;-68
2023/08/20 09:09:05;;;;;;;4.20;3.80;;;46.90;62.60;;;;;;5091802;28;20398;-66
2023/08/20 09:12:17;;;;;;;5.75;3.90;;;48.10;60.30;;;;;;5091964;28;20043;-68
2023/08/20 09:15:21;;;;;;;7.85;3.63;;;49.30;58.60;;;;;;5091806;28;20039;-68
2023/08/20 09:18:25;;;;;;;5.13;3.63;;;49.40;56.40;;;;;;5092004;28;20035;-67
2023/08/20 09:21:29;;;;;;;6.05;3.45;;;49.80;56.30;;;;;;5091574;28;20042;-69
2023/08/20 09:24:45;;;;;;;4.18;3.20;;;50.10;56.40;;;;;;5091682;28;20055;-67
2023/08/20 09:27:50;;;;;;;5.88;3.50;;;50.20;55.10;;;;;;5077789;28;20047;-68
2023/08/20 09:31:04;;;;;;;5.68;3.45;;;50.90;55.10;;;;;;5092110;28;20039;-67
2023/08/20 09:34:13;;;;;;;5.82;3.10;;;51.70;53.40;;;;;;5091968;28;20485;-67
2023/08/20 09:37:20;;;;;;;4.82;2.90;;;50.60;53.40;;;;;;5091380;28;20043;-69
2023/08/20 09:40:24;;;;;;;3.83;2.92;;;51.50;53.80;;;;;;5091510;28;20047;-67
2023/08/20 09:43:30;;;;;;;3.95;2.95;;;52.30;52.80;;;;;;5091051;28;20047;-69
2023/08/20 09:46:36;;;;;;;3.92;2.90;;;52.60;52.30;;;;;;5091495;28;20051;-68
2023/08/20 09:49:42;;;;;;;10.05;8.57;;;53.10;52.20;;;;;;5091090;28;20039;-68
2023/08/20 09:52:55;;;;;;;7.15;3.80;;;53.30;51.50;;;;;;5078680;28;20051;-68
2023/08/20 09:56:29;;;;;;;4.43;3.35;;;52.60;51.30;;;;;;5090981;28;20498;-66
2023/08/20 09:59:35;;;;;;;4.05;3.08;;;52.50;51.20;;;;;;5091417;28;20043;-68
2023/08/20 10:02:40;;;;;;;4.05;2.85;;;53.40;50.90;;;;;;5090756;28;20058;-68
2023/08/20 10:05:48;;;;;;;5.60;2.67;;;54.20;50.30;;;;;;5091448;28;20051;-67
2023/08/20 10:08:53;;;;;;;13.52;3.45;;;53.30;50.20;;;;;;5091091;28;20051;-66
2023/08/20 10:11:57;;;;;;;5.25;2.70;;;52.60;50.50;;;;;;5091111;28;20047;-67
2023/08/20 10:15:02;;;;;;;6.68;3.42;;;51.40;50.70;;;;;;5091397;28;20411;-67
2023/08/20 10:18:10;;;;;;;3.20;2.90;;;52.20;50.70;;;;;;5078524;28;20031;-69
2023/08/20 10:21:14;;;;;;;7.22;3.00;;;53.00;50.40;;;;;;5090740;28;20034;-69
2023/08/20 10:24:19;;;;;;;7.00;3.25;;;52.30;50.20;;;;;;5095244;28;20047;-69
2023/08/20 10:27:28;;;;;;;4.55;2.75;;;52.90;51.00;;;;;;5094917;28;20047;-67
2023/08/20 10:30:32;;;;;;;3.38;2.70;;;53.40;50.50;;;;;;5094693;28;20059;-66
2023/08/20 10:33:46;;;;;;;4.65;2.80;;;52.90;50.30;;;;;;5094681;28;20043;-68
2023/08/20 10:36:50;;;;;;;6.45;2.85;;;53.00;50.20;;;;;;5082625;28;20047;-67
2023/08/20 10:39:56;;;;;;;9.63;3.05;;;54.00;50.00;;;;;;5095007;28;20051;-68
2023/08/20 10:43:01;;;;;;;5.32;2.97;;;53.50;49.80;;;;;;5082295;28;20043;-65
2023/08/20 10:46:17;;;;;;;8.05;2.83;;;53.40;50.20;;;;;;5094655;28;20398;-68
2023/08/20 10:49:21;;;;;;;5.35;2.45;;;52.90;49.90;;;;;;5094487;28;20055;-69
2023/08/20 10:52:25;;;;;;;4.05;2.72;;;53.20;50.30;;;;;;5094327;28;20047;-66
2023/08/20 10:55:30;;;;;;;3.47;2.47;;;53.00;49.30;;;;;;5094872;28;20050;-68
2023/08/20 10:58:34;;;;;;;4.53;2.65;;;53.20;49.70;;;;;;5094363;28;20047;-67
2023/08/20 11:01:39;;;;;;;4.28;2.65;;;51.70;49.60;;;;;;5092350;28;20035;-67
2023/08/20 11:04:43;;;;;;;4.65;2.78;;;52.00;49.80;;;;;;5062162;28;20035;-68
2023/08/20 11:07:48;;;;;;;5.38;3.20;;;51.30;49.90;;;;;;5075457;28;20044;-69
2023/08/20 11:10:53;;;;;;;6.32;3.22;;;51.00;49.80;;;;;;5072902;28;20039;-68
2023/08/20 11:14:06;;;;;;;5.70;3.20;;;51.20;49.60;;;;;;5090983;28;20363;-68
2023/08/20 11:17:10;;;;;;;7.47;3.50;;;50.90;49.90;;;;;;5093905;28;20055;-68
2023/08/20 11:20:14;;;;;;;6.43;3.13;;;51.80;50.00;;;;;;5094289;28;20050;-70
2023/08/20 11:23:18;;;;;;;5.88;2.80;;;52.50;49.70;;;;;;5094412;28;20051;-69
2023/08/20 11:26:22;;;;;;;4.10;2.53;;;52.00;49.10;;;;;;5093580;28;20497;-67
2023/08/20 11:29:26;;;;;;;6.85;2.50;;;52.10;49.50;;;;;;5086140;28;20390;-67
2023/08/20 11:32:31;;;;;;;10.40;3.03;;;51.10;49.40;;;;;;5093878;28;20382;-67
2023/08/20 11:35:36;;;;;;;4.75;2.70;;;49.60;49.60;;;;;;5093682;28;20505;-68
2023/08/20 11:38:39;;;;;;;3.65;2.70;;;49.20;50.40;;;;;;5093938;28;20039;-67
2023/08/20 11:41:44;;;;;;;6.25;2.80;;;49.20;49.90;;;;;;5093599;28;20047;-68
2023/08/20 11:44:49;;;;;;;14.15;3.20;;;49.70;49.90;;;;;;5093758;28;20039;-68
2023/08/20 11:47:57;;;;;;;7.22;2.83;;;50.30;49.30;;;;;;5081001;28;20047;-68
2023/08/20 11:51:02;;;;;;;9.27;3.22;;;49.80;49.90;;;;;;5093143;28;20039;-66
2023/08/20 11:54:08;;;;;;;5.55;2.90;;;48.80;49.60;;;;;;5093402;28;20047;-69
2023/08/20 11:57:12;;;;;;;4.30;2.78;;;47.40;50.70;;;;;;5093565;28;20059;-68
2023/08/20 12:00:28;;;;;;;5.70;2.95;;;47.90;50.50;;;;;;5093327;28;20047;-67
2023/08/20 12:03:32;;;;;;;7.22;2.92;;;47.90;49.60;;;;;;5092967;28;20051;-68
2023/08/20 12:06:37;;;;;;;7.05;3.22;;;48.40;50.20;;;;;;5093393;28;20035;-69
2023/08/20 12:09:42;;;;;;;4.38;3.13;;;48.80;49.90;;;;;;5087156;28;20042;-68
2023/08/20 12:12:46;;;;;;;7.57;2.55;;;48.30;49.80;;;;;;5092536;28;20035;-69
2023/08/20 12:15:50;;;;;;;6.47;2.60;;;47.90;49.90;;;;;;5093042;28;20509;-67
2023/08/20 12:18:54;;;;;;;5.65;3.00;;;48.50;49.50;;;;;;5093159;28;20046;-67
2023/08/20 12:21:58;;;;;;;7.47;3.20;;;48.00;50.00;;;;;;5092578;28;20039;-67
2023/08/20 12:25:02;;;;;;;4.95;2.72;;;48.00;50.20;;;;;;5093356;28;20043;-67
2023/08/20 12:28:06;;;;;;;5.15;3.15;;;48.50;50.20;;;;;;5093399;28;20371;-69
2023/08/20 12:31:10;;;;;;;7.88;3.17;;;47.40;49.70;;;;;;5092907;28;20047;-66
2023/08/20 12:34:14;;;;;;;5.97;3.08;;;45.80;50.00;;;;;;5092645;28;20398;-68
2023/08/20 12:37:18;;;;;;;4.28;2.70;;;46.20;50.70;;;;;;5092966;28;20036;-69
2023/08/20 12:40:22;;;;;;;13.45;3.33;;;46.20;50.30;;;;;;5092377;28;20047;-66
2023/08/20 12:43:26;;;;;;;11.45;3.00;;;46.00;50.90;;;;;;5092320;28;20043;-70
2023/08/20 12:46:31;;;;;;;6.78;3.20;;;46.50;49.80;;;;;;5091993;28;20043;-71
2023/08/20 12:49:35;;;;;;;7.55;3.00;;;46.80;50.00;;;;;;5092135;28;20063;-69
2023/08/20 12:52:40;;;;;;;6.80;3.38;;;45.90;50.40;;;;;;5092190;28;20498;-67
2023/08/20 12:55:44;;;;;;;5.03;3.05;;;46.30;50.50;;;;;;5092423;28;20047;-68
2023/08/20 12:58:48;;;;;;;7.00;2.92;;;46.00;50.60;;;;;;5092175;28;20035;-67
2023/08/20 13:01:52;;;;;;;5.18;3.00;;;45.40;50.20;;;;;;5091892;28;20040;-67
2023/08/20 13:04:57;;;;;;;7.38;3.53;;;45.40;50.70;;;;;;5092133;28;20043;-67
2023/08/20 13:08:01;;;;;;;40.60;4.97;;;45.20;50.20;;;;;;5091919;28;20395;-69
2023/08/20 13:11:07;;;;;;;6.65;3.63;;;42.60;51.30;;;;;;5092334;28;20505;-70
2023/08/20 13:14:11;;;;;;;10.52;3.80;;;41.40;52.50;;;;;;5091591;28;20047;-69
2023/08/20 13:17:15;;;;;;;6.88;4.03;;;42.00;53.40;;;;;;5091851;28;20043;-69
2023/08/20 13:20:24;;;;;;;6.25;3.67;;;41.60;54.10;;;;;;5092033;28;20047;-69
2023/08/20 13:23:28;;;;;;;6.82;4.63;;;42.70;54.60;;;;;;5091660;28;20043;-69
2023/08/20 13:26:33;;;;;;;5.47;4.53;;;43.30;55.20;;;;;;5091670;28;20039;-69
2023/08/20 13:29:37;;;;;;;8.63;4.95;;;43.10;55.70;;;;;;5071604;28;20048;-70
2023/08/20 13:32:40;;;;;;;5.60;4.10;;;42.80;55.80;;;;;;5071238;28;20040;-68
2023/08/20 13:35:46;;;;;;;7.88;5.15;;;42.30;55.00;;;;;;5071539;28;20047;-68
2023/08/20 13:38:50;;;;;;;10.40;4.57;;;42.40;56.40;;;;;;5071826;28;20051;-70
2023/08/20 13:41:54;;;;;;;6.82;5.10;;;42.70;56.20;;;;;;5071237;28;20063;-69
2023/08/20 13:44:58;;;;;;;7.70;4.65;;;42.30;54.90;;;;;;5059114;28;20502;-69
2023/08/20 13:48:02;;;;;;;7.80;4.55;;;41.90;56.60;;;;;;5071561;28;20044;-68
2023/08/20 13:51:05;;;;;;;6.55;4.25;;;42.10;56.50;;;;;;5071042;28;20047;-69
2023/08/20 13:54:09;;;;;;;9.85;4.60;;;41.70;56.00;;;;;;5070913;28;20043;-69
2023/08/20 13:57:13;;;;;;;7.20;4.20;;;41.60;56.20;;;;;;5071421;28;20505;-69
2023/08/20 14:00:17;;;;;;;5.82;4.78;;;41.50;57.80;;;;;;5070744;28;20047;-69
2023/08/20 14:03:21;;;;;;;25.05;5.13;;;41.20;56.60;;;;;;5071226;28;20342;-69
2023/08/20 14:06:25;;;;;;;7.22;4.47;;;40.70;56.40;;;;;;5070945;28;20423;-69
2023/08/20 14:09:29;;;;;;;6.43;4.53;;;39.60;57.60;;;;;;5070625;28;20047;-69
2023/08/20 14:12:34;;;;;;;7.75;4.75;;;39.60;57.70;;;;;;5070853;28;20450;-70
2023/08/20 14:15:38;;;;;;;7.10;4.70;;;39.60;58.00;;;;;;5070835;28;20036;-68
2023/08/20 14:18:42;;;;;;;6.75;4.57;;;39.70;58.10;;;;;;5070770;28;20043;-68
2023/08/20 14:21:46;;;;;;;7.43;4.95;;;39.60;58.50;;;;;;5070592;28;20052;-69
2023/08/20 14:24:50;;;;;;;6.72;4.10;;;39.30;58.40;;;;;;5070810;28;20499;-70
2023/08/20 14:27:53;;;;;;;5.30;3.95;;;39.10;57.90;;;;;;5070785;28;20043;-70
2023/08/20 14:31:04;;;;;;;6.45;4.72;;;38.80;57.10;;;;;;5071273;28;20047;-68
2023/08/20 14:34:08;;;;;;;6.80;4.63;;;38.20;58.00;;;;;;5070588;28;20399;-68
2023/08/20 14:37:13;;;;;;;5.50;4.57;;;37.90;58.30;;;;;;5070808;28;20039;-67
2023/08/20 14:40:17;;;;;;;5.18;4.50;;;38.20;58.20;;;;;;5070673;28;20051;-69
2023/08/20 14:43:21;;;;;;;7.07;4.57;;;38.20;57.70;;;;;;5070122;28;20063;-67
2023/08/20 14:46:25;;;;;;;7.10;4.25;;;38.00;58.50;;;;;;5070427;28;20048;-69
2023/08/20 14:49:29;;;;;;;6.28;4.53;;;38.00;58.80;;;;;;5070174;28;20047;-68
2023/08/20 14:52:33;;;;;;;5.32;4.07;;;38.10;58.60;;;;;;5070489;28;20510;-69
2023/08/20 14:55:38;;;;;;;9.70;4.13;;;38.00;58.60;;;;;;5070832;28;20039;-68
2023/08/20 14:58:42;;;;;;;6.05;3.80;;;37.90;58.80;;;;;;5070309;28;20043;-67
2023/08/20 15:01:46;;;;;;;6.32;3.78;;;37.60;58.40;;;;;;5070355;28;20044;-69
2023/08/20 15:04:50;;;;;;;4.13;3.70;;;37.50;58.50;;;;;;5070639;28;20040;-67
2023/08/20 15:07:54;;;;;;;8.00;4.13;;;37.20;58.70;;;;;;5070917;28;20036;-67
2023/08/20 15:10:59;;;;;;;7.95;5.30;;;37.00;59.80;;;;;;5073594;28;20044;-68
2023/08/20 15:14:03;;;;;;;4.70;3.78;;;36.60;59.80;;;;;;5061670;28;20043;-68
2023/08/20 15:17:08;;;;;;;8.85;4.05;;;36.50;59.40;;;;;;5074319;28;20039;-68
2023/08/20 15:20:12;;;;;;;8.20;4.20;;;36.60;60.50;;;;;;5074157;28;20052;-68
2023/08/20 15:23:16;;;;;;;8.90;4.68;;;36.70;60.70;;;;;;5073573;28;20486;-68
2023/08/20 15:26:20;;;;;;;8.45;4.10;;;36.70;61.00;;;;;;5073641;28;20043;-68
2023/08/20 15:29:24;;;;;;;6.78;4.57;;;36.60;61.30;;;;;;5073713;28;20053;-67
2023/08/20 15:32:28;;;;;;;5.80;4.32;;;36.60;60.90;;;;;;5072343;28;20044;-68
2023/08/20 15:35:32;;;;;;;5.85;4.53;;;36.60;61.00;;;;;;5073530;28;20043;-69
2023/08/20 15:38:37;;;;;;;4.63;3.92;;;36.30;60.80;;;;;;5073761;28;20040;-69
2023/08/20 15:41:41;;;;;;;9.30;4.70;;;36.30;61.30;;;;;;5073599;28;20502;-69
2023/08/20 15:44:46;;;;;;;10.23;4.43;;;36.10;61.10;;;;;;5073772;28;20549;-69
2023/08/20 15:47:51;;;;;;;7.68;4.78;;;35.80;61.80;;;;;;5073758;28;20044;-68
2023/08/20 15:50:55;;;;;;;7.60;5.03;;;35.80;62.30;;;;;;5073204;28;20044;-68
2023/08/20 15:53:59;;;;;;;7.30;5.47;;;35.50;62.30;;;;;;5073349;28;20040;-67
2023/08/20 15:57:03;;;;;;;6.25;5.32;;;35.10;63.10;;;;;;5073487;28;20038;-68
2023/08/20 16:00:14;;;;;;;9.68;5.05;;;35.10;63.90;;;;;;5073243;28;20043;-68
2023/08/20 16:03:18;;;;;;;;;;;34.90;63.90;;;;;;5073418;28;20035;-68
2023/08/20 16:06:23;;;;;;;7.57;5.18;;;35.00;63.80;;;;;;5073433;28;19916;-68
2023/08/20 16:09:29;;;;;;;6.68;4.82;;;34.90;64.10;;;;;;5072976;28;20352;-67
2023/08/20 16:12:34;;;;;;;7.47;5.18;;;35.00;63.70;;;;;;5073032;28;20043;-70
2023/08/20 16:15:38;;;;;;;7.20;5.40;;;34.90;63.90;;;;;;5073325;28;20039;-68
2023/08/20 16:18:42;;;;;;;6.53;4.82;;;34.60;62.90;;;;;;5072777;28;20048;-68
2023/08/20 16:21:47;;;;;;;6.35;5.03;;;34.50;63.30;;;;;;5072476;28;20059;-69
2023/08/20 16:24:51;;;;;;;7.50;4.80;;;34.50;63.50;;;;;;5073081;28;20056;-69
2023/08/20 16:27:55;;;;;;;7.78;4.50;;;34.50;63.10;;;;;;5072515;28;20226;-68
2023/08/20 16:30:59;;;;;;;6.13;4.35;;;34.40;63.00;;;;;;5072434;28;20048;-70
2023/08/20 16:34:03;;;;;;;8.52;4.97;;;34.30;62.50;;;;;;5073041;28;20039;-68
2023/08/20 16:37:07;;;;;;;5.28;4.60;;;34.20;63.20;;;;;;5073075;28;20059;-67
2023/08/20 16:40:22;;;;;;;7.47;4.90;;;34.30;63.70;;;;;;5072875;28;20421;-67
2023/08/20 16:43:26;;;;;;;8.85;4.70;;;34.10;63.30;;;;;;5072165;28;20048;-67
2023/08/20 16:46:30;;;;;;;9.98;4.95;;;33.80;63.20;;;;;;5072594;28;20043;-69
2023/08/20 16:49:34;;;;;;;7.35;4.55;;;33.70;63.90;;;;;;5072467;28;20063;-67
2023/08/20 16:52:39;;;;;;;8.18;4.70;;;33.50;64.30;;;;;;5072070;28;20051;-69
2023/08/20 16:55:50;;;;;;;9.88;5.18;;;33.40;64.90;;;;;;5072087;28;20039;-69